createdAt,value
2018-06-17T00:01:01.586Z,99211.72
2018-06-17T00:03:32.161Z,99204.64
2018-06-17T00:06:03.058Z,99203.61
2018-06-17T00:08:33.610Z,99206.47
2018-06-17T00:11:04.392Z,99216.64
2018-06-17T00:13:35.051Z,99214.82
2018-06-17T00:16:05.841Z,99227.35
2018-06-17T00:18:36.059Z,99231.26
2018-06-17T00:21:06.305Z,99234.66
2018-06-17T00:23:36.808Z,99238.84
2018-06-17T00:26:10.158Z,99242.48
2018-06-17T00:28:40.785Z,99238.57
2018-06-17T00:31:11.476Z,99242.48
2018-06-17T00:33:41.915Z,99246.13
2018-06-17T00:36:12.722Z,99255.27
2018-06-17T00:38:43.396Z,99255.55
2018-06-17T00:41:14.112Z,99258.59
2018-06-17T00:43:44.794Z,99256.81
2018-06-17T00:46:15.796Z,99263.95
2018-06-17T00:48:46.526Z,99254.73
2018-06-17T00:51:17.316Z,99259.23
2018-06-17T00:53:47.936Z,99257.41
2018-06-17T00:56:19.752Z,99267.60
2018-06-17T00:58:50.528Z,99267.09
2018-06-17T01:01:21.652Z,99266.34
2018-06-17T01:03:52.286Z,99263.48
2018-06-17T01:06:23.405Z,99259.80
2018-06-17T01:08:54.052Z,99261.36
2018-06-17T01:11:24.827Z,99259.27
2018-06-17T01:13:55.464Z,99265.02
2018-06-17T01:16:26.227Z,99260.11
2018-06-17T01:18:57.171Z,99264.81
2018-06-17T01:21:28.048Z,99264.78
2018-06-17T01:23:58.672Z,99265.58
2018-06-17T01:26:29.370Z,99258.77
2018-06-17T01:28:59.445Z,99254.61
2018-06-17T01:31:30.190Z,99252.45
2018-06-17T01:34:00.787Z,99252.60
2018-06-17T01:36:31.578Z,99248.00
2018-06-17T01:39:02.262Z,99252.70
2018-06-17T01:41:32.946Z,99256.07
2018-06-17T01:44:03.629Z,99259.19
2018-06-17T01:46:34.281Z,99256.82
2018-06-17T01:49:05.092Z,99253.19
2018-06-17T01:51:35.853Z,99248.75
2018-06-17T01:54:06.772Z,99238.42
2018-06-17T01:56:37.552Z,99240.34
2018-06-17T01:59:08.214Z,99246.16
2018-06-17T02:01:38.792Z,99241.74
2018-06-17T02:04:15.707Z,99246.66
2018-06-17T02:06:51.592Z,99244.81
2018-06-17T02:09:27.315Z,99246.83
2018-06-17T02:12:04.215Z,99247.97
2018-06-17T02:14:39.573Z,99252.14
2018-06-17T02:17:10.202Z,99249.05
2018-06-17T02:19:40.814Z,99246.45
2018-06-17T02:22:11.461Z,99237.37
2018-06-17T02:24:42.054Z,99242.84
2018-06-17T02:27:12.810Z,99232.44
2018-06-17T02:29:43.587Z,99233.25
2018-06-17T02:32:14.437Z,99229.46
2018-06-17T02:34:45.154Z,99227.61
2018-06-17T02:37:15.450Z,99233.96
2018-06-17T02:39:45.950Z,99234.52
2018-06-17T02:42:16.942Z,99235.19
2018-06-17T02:44:51.226Z,99233.19
2018-06-17T02:47:26.958Z,99225.86
2018-06-17T02:50:01.809Z,99225.05
2018-06-17T02:52:37.553Z,99227.20
2018-06-17T02:55:08.254Z,99222.01
2018-06-17T02:57:39.329Z,99223.58
2018-06-17T03:00:09.832Z,99220.68
2018-06-17T03:02:40.556Z,99218.10
2018-06-17T03:05:11.194Z,99216.81
2018-06-17T03:07:41.873Z,99211.59
2018-06-17T03:10:12.542Z,99217.00
2018-06-17T03:12:43.262Z,99214.95
2018-06-17T03:15:13.310Z,99211.29
2018-06-17T03:17:44.074Z,99214.70
2018-06-17T03:20:14.758Z,99212.58
2018-06-17T03:22:45.536Z,99205.82
2018-06-17T03:25:20.955Z,99203.00
2018-06-17T03:27:56.746Z,99205.33
2018-06-17T03:30:32.334Z,99214.80
2018-06-17T03:33:08.294Z,99218.47
2018-06-17T03:35:43.986Z,99220.04
2018-06-17T03:38:14.931Z,99218.48
2018-06-17T03:40:45.522Z,99216.66
2018-06-17T03:43:16.495Z,99215.63
2018-06-17T03:45:47.098Z,99219.00
2018-06-17T03:48:17.843Z,99216.38
2018-06-17T03:50:48.519Z,99224.97
2018-06-17T03:53:19.629Z,99229.14
2018-06-17T03:55:50.238Z,99224.98
2018-06-17T03:58:21.129Z,99224.73
2018-06-17T04:00:51.830Z,99226.80
2018-06-17T04:03:22.526Z,99231.02
2018-06-17T04:05:53.143Z,99233.25
2018-06-17T04:08:23.930Z,99234.82
2018-06-17T04:10:54.619Z,99233.30
2018-06-17T04:13:25.712Z,99234.83
2018-06-17T04:15:56.396Z,99231.76
2018-06-17T04:18:27.305Z,99232.04
2018-06-17T04:20:57.982Z,99238.28
2018-06-17T04:23:28.786Z,99238.46
2018-06-17T04:25:58.834Z,99239.40
2018-06-17T04:28:29.649Z,99239.13
2018-06-17T04:31:00.370Z,99238.06
2018-06-17T04:33:30.635Z,99240.80
2018-06-17T04:36:01.442Z,99239.75
2018-06-17T04:38:32.230Z,99243.66
2018-06-17T04:41:03.114Z,99240.38
2018-06-17T04:43:34.099Z,99242.88
2018-06-17T04:46:04.782Z,99244.55
2018-06-17T04:48:35.371Z,99245.07
2018-06-17T04:51:06.170Z,99242.75
2018-06-17T04:53:36.938Z,99240.53
2018-06-17T04:56:07.710Z,99238.13
2018-06-17T04:58:38.509Z,99245.72
2018-06-17T05:01:09.186Z,99243.47
2018-06-17T05:03:39.954Z,99239.23
2018-06-17T05:06:10.646Z,99240.27
2018-06-17T05:08:41.437Z,99240.77
2018-06-17T05:11:12.112Z,99242.89
2018-06-17T05:13:43.021Z,99244.70
2018-06-17T05:16:13.642Z,99243.36
2018-06-17T05:18:44.499Z,99246.09
2018-06-17T05:21:15.154Z,99237.41
2018-06-17T05:23:45.930Z,99238.90
2018-06-17T05:26:16.618Z,99237.81
2018-06-17T05:28:46.818Z,99240.36
2018-06-17T05:31:17.575Z,99236.92
2018-06-17T05:33:48.620Z,99242.59
2018-06-17T05:36:19.356Z,99245.39
2018-06-17T05:38:50.149Z,99240.13
2018-06-17T05:41:20.810Z,99250.02
2018-06-17T05:43:51.045Z,99243.31
2018-06-17T05:46:21.875Z,99244.35
2018-06-17T05:48:52.927Z,99244.06
2018-06-17T05:51:23.650Z,99242.02
2018-06-17T05:53:54.645Z,99242.45
2018-06-17T05:56:25.314Z,99243.23
2018-06-17T05:58:56.412Z,99242.09
2018-06-17T06:01:27.026Z,99247.34
2018-06-17T06:03:57.915Z,99243.87
2018-06-17T06:06:28.671Z,99242.55
2018-06-17T06:08:59.587Z,99240.41
2018-06-17T06:11:29.642Z,99242.48
2018-06-17T06:14:00.504Z,99243.20
2018-06-17T06:16:31.194Z,99241.17
2018-06-17T06:19:02.116Z,99239.05
2018-06-17T06:21:32.451Z,99238.03
2018-06-17T06:24:03.554Z,99238.73
2018-06-17T06:26:34.322Z,99234.45
2018-06-17T06:29:05.412Z,99237.11
2018-06-17T06:31:35.800Z,99236.80
2018-06-17T06:34:07.613Z,99232.86
2018-06-17T06:36:38.597Z,99234.76
2018-06-17T06:39:11.416Z,99229.16
2018-06-17T06:41:42.493Z,99228.89
2018-06-17T06:44:13.437Z,99231.58
2018-06-17T06:46:44.181Z,99228.61
2018-06-17T06:49:15.090Z,99224.97
2018-06-17T06:51:45.611Z,99227.36
2018-06-17T06:54:16.350Z,99224.55
2018-06-17T06:56:47.332Z,99223.77
2018-06-17T06:59:18.306Z,99224.49
2018-06-17T07:02:05.786Z,99230.41
2018-06-17T07:04:54.436Z,99227.38
2018-06-17T07:07:41.900Z,99221.44
2018-06-17T07:10:27.642Z,99224.98
2018-06-17T07:12:58.683Z,99223.41
2018-06-17T07:15:46.536Z,99223.84
2018-06-17T07:18:34.197Z,99226.03
2018-06-17T07:21:05.801Z,99225.59
2018-06-17T07:23:36.837Z,99232.59
2018-06-17T07:26:35.541Z,99224.88
2018-06-17T07:29:25.525Z,99225.29
2018-06-17T07:31:56.741Z,99225.60
2018-06-17T07:34:28.035Z,99224.39
2018-06-17T07:36:59.365Z,99231.37
2018-06-17T07:41:39.392Z,99215.93
2018-06-17T07:44:10.536Z,99218.91
2018-06-17T07:46:41.565Z,99220.27
2018-06-17T07:49:34.676Z,99224.79
2018-06-17T07:52:22.549Z,99216.91
2018-06-17T07:54:53.396Z,99225.77
2018-06-17T07:57:25.669Z,99219.03
2018-06-17T07:59:56.780Z,99223.32
2018-06-17T08:02:27.917Z,99215.22
2018-06-17T08:04:58.991Z,99219.08
2018-06-17T08:07:30.317Z,99219.33
2018-06-17T08:10:01.037Z,99219.77
2018-06-17T08:12:32.163Z,99218.45
2018-06-17T08:15:03.265Z,99211.72
2018-06-17T08:17:34.289Z,99214.03
2018-06-17T08:20:04.902Z,99211.68
2018-06-17T08:22:35.906Z,99213.83
2018-06-17T08:25:06.608Z,99203.83
2018-06-17T08:27:37.264Z,99196.59
2018-06-17T08:30:08.000Z,99197.80
2018-06-17T08:32:38.109Z,99197.33
2018-06-17T08:35:08.605Z,99188.97
2018-06-17T08:37:39.349Z,99191.50
2018-06-17T08:40:10.168Z,99185.89
2018-06-17T08:42:40.819Z,99184.70
2018-06-17T08:45:11.633Z,99187.83
2018-06-17T08:47:42.400Z,99189.43
2018-06-17T08:50:13.307Z,99181.88
2018-06-17T08:52:43.948Z,99177.98
2018-06-17T08:55:14.948Z,99176.95
2018-06-17T08:57:45.601Z,99171.89
2018-06-17T09:00:16.508Z,99169.52
2018-06-17T09:02:46.715Z,99169.09
2018-06-17T09:05:17.148Z,99168.48
2018-06-17T09:07:47.348Z,99164.36
2018-06-17T09:10:18.027Z,99162.19
2018-06-17T09:12:48.640Z,99165.56
2018-06-17T09:15:19.501Z,99159.06
2018-06-17T09:17:50.180Z,99158.02
2018-06-17T09:20:20.904Z,99152.45
2018-06-17T09:22:51.631Z,99148.58
2018-06-17T09:25:22.397Z,99150.29
2018-06-17T09:27:52.321Z,99146.30
2018-06-17T09:30:23.090Z,99149.55
2018-06-17T09:32:53.864Z,99144.72
2018-06-17T09:35:24.628Z,99142.08
2018-06-17T09:37:55.326Z,99147.02
2018-06-17T09:40:26.277Z,99141.62
2018-06-17T09:42:56.758Z,99135.45
2018-06-17T09:45:27.546Z,99135.73
2018-06-17T09:47:58.185Z,99129.62
2018-06-17T09:50:28.869Z,99130.80
2018-06-17T09:52:59.829Z,99127.59
2018-06-17T09:55:30.873Z,99129.56
2018-06-17T09:58:01.472Z,99121.02
2018-06-17T10:00:31.814Z,99123.73
2018-06-17T10:03:02.497Z,99121.05
2018-06-17T10:05:33.286Z,99125.90
2018-06-17T10:08:03.980Z,99127.28
2018-06-17T10:11:04.427Z,99129.02
2018-06-17T10:13:36.411Z,99122.88
2018-06-17T10:16:07.241Z,99120.69
2018-06-17T10:18:37.263Z,99112.23
2018-06-17T10:21:08.422Z,99115.19
2018-06-17T10:23:38.499Z,99113.60
2018-06-17T10:26:10.513Z,99112.41
2018-06-17T10:28:41.248Z,99101.80
2018-06-17T10:31:12.139Z,99103.00
2018-06-17T10:33:42.451Z,99094.71
2018-06-17T10:36:13.297Z,99092.11
2018-06-17T10:38:44.149Z,99086.63
2018-06-17T10:41:15.239Z,99080.68
2018-06-17T10:43:45.970Z,99082.73
2018-06-17T10:46:16.537Z,99074.36
2018-06-17T10:48:47.326Z,99075.75
2018-06-17T10:51:18.082Z,99075.61
2018-06-17T10:53:48.803Z,99071.55
2018-06-17T10:56:19.695Z,99068.86
2018-06-17T10:58:50.369Z,99063.53
2018-06-17T11:01:21.146Z,99062.58
2018-06-17T11:03:51.842Z,99052.25
2018-06-17T11:06:22.687Z,99049.13
2018-06-17T11:08:53.406Z,99047.70
2018-06-17T11:11:24.458Z,99046.51
2018-06-17T11:13:55.029Z,99042.05
2018-06-17T11:16:25.842Z,99035.00
2018-06-17T11:18:56.553Z,99034.16
2018-06-17T11:21:27.342Z,99032.41
2018-06-17T11:23:58.089Z,99037.61
2018-06-17T11:26:28.932Z,99040.87
2018-06-17T11:28:59.375Z,99042.81
2018-06-17T11:31:30.157Z,99043.72
2018-06-17T11:34:00.845Z,99052.52
2018-06-17T11:36:31.714Z,99061.84
2018-06-17T11:39:02.527Z,99087.32
2018-06-17T11:41:33.261Z,99084.51
2018-06-17T11:44:03.882Z,99090.11
2018-06-17T11:46:34.715Z,99089.86
2018-06-17T11:49:05.454Z,99084.80
2018-06-17T11:51:36.314Z,99086.95
2018-06-17T11:54:06.904Z,99093.52
2018-06-17T11:56:37.525Z,99086.69
2018-06-17T11:59:08.230Z,99093.28
2018-06-17T12:01:39.310Z,99091.53
2018-06-17T12:04:09.869Z,99099.75
2018-06-17T12:06:40.703Z,99093.47
2018-06-17T12:09:11.921Z,99089.95
2018-06-17T12:11:42.433Z,99084.58
2018-06-17T12:14:13.020Z,99077.48
2018-06-17T12:16:43.813Z,99071.06
2018-06-17T12:19:14.421Z,99070.72
2018-06-17T12:21:45.385Z,99067.50
2018-06-17T12:24:15.953Z,99075.27
2018-06-17T12:26:46.810Z,99071.63
2018-06-17T12:29:17.466Z,99063.97
2018-06-17T12:31:48.273Z,99064.00
2018-06-17T12:34:18.881Z,99062.39
2018-06-17T12:36:49.637Z,99060.30
2018-06-17T12:39:20.120Z,99068.01
2018-06-17T12:41:50.776Z,99075.91
2018-06-17T12:44:21.542Z,99077.95
2018-06-17T12:46:52.258Z,99073.88
2018-06-17T12:49:22.353Z,99076.22
2018-06-17T12:51:53.434Z,99080.56
2018-06-17T12:54:24.178Z,99073.81
2018-06-17T12:57:00.038Z,99070.61
2018-06-17T12:59:30.738Z,99073.42
2018-06-17T13:02:00.984Z,99071.95
2018-06-17T13:04:31.595Z,99074.20
2018-06-17T13:07:02.413Z,99074.05
2018-06-17T13:09:33.174Z,99068.01
2018-06-17T13:12:04.026Z,99068.20
2018-06-17T13:14:34.686Z,99068.97
2018-06-17T13:17:05.629Z,99069.88
2018-06-17T13:19:36.180Z,99069.64
2018-06-17T13:22:07.289Z,99066.94
2018-06-17T13:24:37.982Z,99063.16
2018-06-17T13:27:08.348Z,99061.77
2018-06-17T13:29:39.146Z,99066.13
2018-06-17T13:32:09.957Z,99063.09
2018-06-17T13:34:40.702Z,99058.66
2018-06-17T13:37:11.492Z,99059.50
2018-06-17T13:39:42.140Z,99055.15
2018-06-17T13:42:12.934Z,99052.23
2018-06-17T13:44:43.643Z,99048.19
2018-06-17T13:47:14.250Z,99054.05
2018-06-17T13:49:44.858Z,99052.38
2018-06-17T13:52:15.692Z,99050.21
2018-06-17T13:54:46.782Z,99052.93
2018-06-17T13:57:17.497Z,99052.42
2018-06-17T13:59:48.190Z,99045.84
2018-06-17T14:02:18.819Z,99041.09
2018-06-17T14:04:49.459Z,99043.72
2018-06-17T14:07:20.153Z,99049.18
2018-06-17T14:09:50.833Z,99044.93
2018-06-17T14:12:21.824Z,99049.16
2018-06-17T14:14:52.391Z,99042.43
2018-06-17T14:17:23.621Z,99033.16
2018-06-17T14:19:54.205Z,99034.20
2018-06-17T14:22:24.953Z,99028.09
2018-06-17T14:24:55.037Z,99029.77
2018-06-17T14:27:25.934Z,99030.38
2018-06-17T14:29:56.490Z,99031.27
2018-06-17T14:32:27.307Z,99034.06
2018-06-17T14:34:58.054Z,99024.86
2018-06-17T14:37:28.902Z,99032.33
2018-06-17T14:39:59.623Z,99030.78
2018-06-17T14:42:35.434Z,99034.16
2018-06-17T14:45:11.369Z,99029.88
2018-06-17T14:47:46.829Z,99033.52
2018-06-17T14:50:21.933Z,99030.11
2018-06-17T14:52:57.745Z,99032.72
2018-06-17T14:55:28.225Z,99035.70
2018-06-17T14:57:58.385Z,99039.23
2018-06-17T15:00:29.205Z,99042.77
2018-06-17T15:02:59.850Z,99046.42
2018-06-17T15:05:30.497Z,99045.88
2018-06-17T15:08:01.139Z,99050.59
2018-06-17T15:10:31.813Z,99059.24
2018-06-17T15:13:02.501Z,99056.02
2018-06-17T15:15:33.503Z,99058.20
2018-06-17T15:18:04.289Z,99063.45
2018-06-17T15:20:35.377Z,99063.91
2018-06-17T15:23:06.013Z,99060.48
2018-06-17T15:25:36.598Z,99060.42
2018-06-17T15:28:06.689Z,99061.08
2018-06-17T15:30:37.386Z,99062.97
2018-06-17T15:33:12.909Z,99070.03
2018-06-17T15:35:48.741Z,99063.45
2018-06-17T15:38:31.257Z,99066.06
2018-06-17T15:41:06.324Z,99063.06
2018-06-17T15:43:37.132Z,99065.84
2018-06-17T15:46:08.158Z,99062.31
2018-06-17T15:48:38.857Z,99073.80
2018-06-17T15:51:09.778Z,99065.86
2018-06-17T15:53:40.638Z,99071.67
2018-06-17T15:56:11.305Z,99075.66
2018-06-17T15:58:42.056Z,99076.57
2018-06-17T16:01:12.839Z,99083.36
2018-06-17T16:03:43.378Z,99084.56
2018-06-17T16:06:14.530Z,99083.55
2018-06-17T16:08:45.245Z,99084.70
2018-06-17T16:11:15.917Z,99087.94
2018-06-17T16:13:50.809Z,99088.83
2018-06-17T16:16:26.497Z,99086.43
2018-06-17T16:19:02.390Z,99085.08
2018-06-17T16:21:33.154Z,99079.00
2018-06-17T16:24:03.845Z,99080.42
2018-06-17T16:26:34.433Z,99077.73
2018-06-17T16:29:05.130Z,99089.42
2018-06-17T16:31:35.978Z,99092.84
2018-06-17T16:34:06.605Z,99101.98
2018-06-17T16:36:37.427Z,99108.47
2018-06-17T16:39:12.030Z,99114.05
2018-06-17T16:41:43.329Z,99121.31
2018-06-17T16:44:14.149Z,99120.56
2018-06-17T16:46:45.123Z,99132.39
2018-06-17T16:49:15.325Z,99130.24
2018-06-17T16:51:50.869Z,99133.48
2018-06-17T16:54:26.469Z,99143.30
2018-06-17T16:57:02.113Z,99160.72
2018-06-17T16:59:37.777Z,99162.20
2018-06-17T17:02:08.489Z,99167.05
2018-06-17T17:04:39.142Z,99175.10
2018-06-17T17:07:09.828Z,99179.05
2018-06-17T17:09:39.916Z,99187.35
2018-06-17T17:12:10.841Z,99186.39
2018-06-17T17:14:41.721Z,99185.80
2018-06-17T17:17:12.383Z,99191.77
2018-06-17T17:19:43.051Z,99200.13
2018-06-17T17:22:13.826Z,99201.92
2018-06-17T17:24:44.518Z,99193.83
2018-06-17T17:27:15.390Z,99204.52
2018-06-17T17:29:46.086Z,99201.87
2018-06-17T17:32:21.644Z,99201.72
2018-06-17T17:35:58.070Z,99198.38
2018-06-17T17:38:33.865Z,99199.92
2018-06-17T17:41:05.440Z,99203.16
2018-06-17T17:43:36.225Z,99205.58
2018-06-17T17:46:12.057Z,99208.72
2018-06-17T17:48:42.837Z,99218.65
2018-06-17T17:51:13.149Z,99228.16
2018-06-17T17:53:43.874Z,99238.32
2018-06-17T17:56:14.805Z,99251.70
2018-06-17T17:58:45.469Z,99255.77
2018-06-17T18:01:16.204Z,99264.66
2018-06-17T18:03:46.817Z,99270.90
2018-06-17T18:06:17.554Z,99273.48
2018-06-17T18:08:48.255Z,99277.56
2018-06-17T18:11:19.036Z,99282.97
2018-06-17T18:13:49.816Z,99286.27
2018-06-17T18:16:20.626Z,99290.30
2018-06-17T18:18:51.650Z,99301.27
2018-06-17T18:21:22.284Z,99306.48
2018-06-17T18:23:53.154Z,99306.05
2018-06-17T18:26:28.256Z,99316.61
2018-06-17T18:29:03.841Z,99330.95
2018-06-17T18:31:39.277Z,99345.01
2018-06-17T18:34:15.018Z,99352.95
2018-06-17T18:36:45.835Z,99358.19
2018-06-17T18:39:16.525Z,99361.84
2018-06-17T18:41:47.199Z,99362.59
2018-06-17T18:44:17.881Z,99367.58
2018-06-17T18:46:47.909Z,99360.08
2018-06-17T18:49:18.710Z,99359.66
2018-06-17T18:51:49.692Z,99357.34
2018-06-17T18:54:20.594Z,99348.03
2018-06-17T18:56:51.502Z,99345.08
2018-06-17T18:59:22.422Z,99343.00
2018-06-17T19:01:52.862Z,99347.93
2018-06-17T19:04:23.715Z,99354.00
2018-06-17T19:06:54.412Z,99356.01
2018-06-17T19:09:30.230Z,99350.68
2018-06-17T19:12:05.693Z,99341.02
2018-06-17T19:14:41.358Z,99338.67
2018-06-17T19:17:16.904Z,99337.05
2018-06-17T19:19:48.501Z,99335.88
2018-06-17T19:22:19.258Z,99332.00
2018-06-17T19:24:49.958Z,99320.64
2018-06-17T19:27:20.650Z,99306.58
2018-06-17T19:29:50.937Z,99302.41
2018-06-17T19:32:21.573Z,99298.08
2018-06-17T19:34:52.408Z,99299.74
2018-06-17T19:37:23.149Z,99291.17
2018-06-17T19:39:54.062Z,99300.33
2018-06-17T19:42:24.719Z,99302.86
2018-06-17T19:44:55.353Z,99305.63
2018-06-17T19:47:26.075Z,99304.22
2018-06-17T19:50:01.418Z,99306.05
2018-06-17T19:52:36.442Z,99314.73
2018-06-17T19:55:12.274Z,99310.67
2018-06-17T19:57:47.837Z,99317.94
2018-06-17T20:00:23.890Z,99316.27
2018-06-17T20:02:54.165Z,99315.53
2018-06-17T20:05:24.785Z,99303.95
2018-06-17T20:07:55.354Z,99311.55
2018-06-17T20:10:26.090Z,99311.30
2018-06-17T20:12:56.713Z,99313.89
2018-06-17T20:15:27.465Z,99309.52
2018-06-17T20:17:58.207Z,99307.73
2018-06-17T20:20:28.998Z,99305.32
2018-06-17T20:22:59.089Z,99299.41
2018-06-17T20:25:29.941Z,99304.65
2018-06-17T20:28:00.161Z,99315.42
2018-06-17T20:30:31.109Z,99325.13
2018-06-17T20:33:06.105Z,99330.70
2018-06-17T20:35:41.749Z,99331.27
2018-06-17T20:38:18.034Z,99333.52
2018-06-17T20:40:53.845Z,99333.66
2018-06-17T20:43:29.345Z,99336.94
2018-06-17T20:46:00.453Z,99340.87
2018-06-17T20:48:31.190Z,99336.34
2018-06-17T20:51:01.830Z,99328.95
2018-06-17T20:53:32.210Z,99332.08
2018-06-17T20:56:02.933Z,99327.27
2018-06-17T20:58:33.650Z,99332.16
2018-06-17T21:01:03.883Z,99331.92
2018-06-17T21:03:34.122Z,99326.80
2018-06-17T21:06:04.990Z,99319.62
2018-06-17T21:08:35.671Z,99314.11
2018-06-17T21:11:06.598Z,99311.27
2018-06-17T21:13:36.854Z,99309.94
2018-06-17T21:16:07.803Z,99312.92
2018-06-17T21:18:43.497Z,99315.47
2018-06-17T21:21:19.398Z,99307.33
2018-06-17T21:23:54.778Z,99310.47
2018-06-17T21:28:34.486Z,99303.95
2018-06-17T21:31:05.142Z,99310.23
2018-06-17T21:33:35.817Z,99307.45
2018-06-17T21:36:06.626Z,99304.98
2018-06-17T21:38:37.289Z,99311.66
2018-06-17T21:41:08.201Z,99311.08
2018-06-17T21:43:38.865Z,99311.28
2018-06-17T21:46:09.114Z,99305.73
2018-06-17T21:48:39.790Z,99300.37
2018-06-17T21:51:10.378Z,99293.84
2018-06-17T21:53:41.113Z,99295.66
2018-06-17T21:56:12.031Z,99296.29
2018-06-17T21:58:49.029Z,99292.36
2018-06-17T22:01:20.490Z,99297.14
2018-06-17T22:03:51.039Z,99294.28
2018-06-17T22:06:21.730Z,99296.11
2018-06-17T22:08:57.256Z,99296.39
2018-06-17T22:11:32.369Z,99295.14
2018-06-17T22:14:08.535Z,99295.20
2018-06-17T22:16:44.289Z,99290.02
2018-06-17T22:19:15.171Z,99287.35
2018-06-17T22:21:45.909Z,99283.98
2018-06-17T22:24:16.617Z,99287.14
2018-06-17T22:26:47.333Z,99285.86
2018-06-17T22:29:17.646Z,99278.76
2018-06-17T22:31:48.341Z,99285.09
2018-06-17T22:34:18.957Z,99279.30
2018-06-17T22:36:49.469Z,99272.75
2018-06-17T22:39:19.996Z,99281.72
2018-06-17T22:41:50.634Z,99279.27
2018-06-17T22:44:21.414Z,99284.47
2018-06-17T22:46:52.035Z,99277.11
2018-06-17T22:49:22.629Z,99278.75
2018-06-17T22:51:53.345Z,99276.85
2018-06-17T22:54:40.558Z,99278.46
2018-06-17T22:57:16.201Z,99280.28
2018-06-17T22:59:51.849Z,99282.94
2018-06-17T23:02:27.516Z,99284.98
2018-06-17T23:05:02.600Z,99290.40
2018-06-17T23:07:38.026Z,99286.98
2018-06-17T23:10:11.532Z,99288.58
2018-06-17T23:12:42.150Z,99283.39
2018-06-17T23:15:12.841Z,99283.17
2018-06-17T23:17:42.773Z,99286.58
2018-06-17T23:20:13.409Z,99280.02
2018-06-17T23:22:44.177Z,99275.05
2018-06-17T23:25:15.281Z,99277.35
2018-06-17T23:27:45.469Z,99267.75
2018-06-17T23:30:16.401Z,99265.66
2018-06-17T23:32:46.874Z,99253.66
2018-06-17T23:35:17.706Z,99245.61
2018-06-17T23:37:47.917Z,99251.31
2018-06-17T23:40:18.072Z,99247.92
2018-06-17T23:42:48.733Z,99244.00
2018-06-17T23:45:19.474Z,99245.59
2018-06-17T23:47:55.006Z,99251.29
2018-06-17T23:50:30.642Z,99249.98
2018-06-17T23:53:05.997Z,99242.08
2018-06-17T23:55:41.518Z,99249.17
2018-06-17T23:58:12.334Z,99243.38
